createdAt,value
2023-04-28T00:04:47.755Z,14.40
2023-04-28T00:09:51.408Z,14.60
2023-04-28T00:14:54.451Z,14.80
2023-04-28T00:19:57.859Z,15.10
2023-04-28T00:25:21.356Z,15.20
2023-04-28T00:30:25.484Z,13.70
2023-04-28T00:35:28.733Z,13.20
2023-04-28T00:40:39.591Z,12.80
2023-04-28T00:45:42.897Z,13.50
2023-04-28T00:50:48.240Z,12.70
2023-04-28T00:55:56.874Z,13.50
2023-04-28T01:01:08.296Z,13.50
2023-04-28T01:06:12.654Z,13.90
2023-04-28T01:11:16.669Z,14.40
2023-04-28T01:16:33.068Z,13.80
2023-04-28T01:21:36.670Z,13.50
2023-04-28T01:26:55.510Z,12.90
2023-04-28T01:31:58.961Z,14.00
2023-04-28T01:37:02.287Z,14.10
2023-04-28T01:42:06.029Z,14.50
2023-04-28T01:47:09.614Z,14.20
2023-04-28T01:52:12.848Z,14.30
2023-04-28T01:57:17.640Z,13.90
2023-04-28T02:02:21.649Z,14.60
2023-04-28T02:07:25.502Z,14.80
2023-04-28T02:12:28.981Z,14.00
2023-04-28T02:17:42.678Z,14.80
2023-04-28T02:22:48.265Z,14.30
2023-04-28T02:27:51.768Z,14.40
2023-04-28T02:32:54.986Z,13.80
2023-04-28T02:38:23.162Z,14.90
2023-04-28T02:43:27.151Z,14.00
2023-04-28T02:48:31.059Z,13.70
2023-04-28T02:53:34.285Z,13.90
2023-04-28T02:58:37.637Z,13.50
2023-04-28T03:03:41.106Z,14.20
2023-04-28T03:08:44.382Z,14.70
2023-04-28T03:13:47.971Z,14.70
2023-04-28T03:18:51.281Z,15.80
2023-04-28T03:23:55.849Z,14.40
2023-04-28T03:28:59.591Z,13.50
2023-04-28T03:34:04.618Z,13.70
2023-04-28T03:39:07.768Z,13.40
2023-04-28T03:44:11.423Z,14.20
2023-04-28T03:49:22.584Z,14.20
2023-04-28T03:54:34.849Z,13.60
2023-04-28T03:59:38.855Z,13.80
2023-04-28T04:04:42.095Z,13.50
2023-04-28T04:09:45.513Z,13.50
2023-04-28T04:14:48.935Z,12.50
2023-04-28T04:19:52.511Z,12.70
2023-04-28T04:24:55.791Z,13.30
2023-04-28T04:29:58.980Z,13.90
2023-04-28T04:35:03.144Z,13.90
2023-04-28T04:40:07.371Z,14.10
2023-04-28T04:45:14.309Z,13.20
2023-04-28T04:50:21.510Z,13.10
2023-04-28T04:55:24.759Z,13.50
2023-04-28T05:00:28.413Z,13.90
2023-04-28T05:05:34.945Z,15.00
2023-04-28T05:10:46.443Z,14.10
2023-04-28T05:15:50.595Z,14.50
2023-04-28T05:21:04.502Z,14.90
2023-04-28T05:26:09.705Z,14.40
2023-04-28T05:31:13.104Z,14.50
2023-04-28T05:36:17.315Z,14.40
2023-04-28T05:41:22.087Z,14.20
2023-04-28T05:46:30.703Z,14.30
2023-04-28T05:51:35.549Z,13.70
2023-04-28T05:56:39.266Z,13.70
2023-04-28T06:01:43.359Z,14.30
2023-04-28T06:06:47.394Z,14.20
2023-04-28T06:11:50.888Z,14.30
2023-04-28T06:16:54.226Z,13.40
2023-04-28T06:21:57.603Z,14.20
2023-04-28T06:27:00.790Z,13.40
2023-04-28T06:32:05.167Z,14.20
2023-04-28T06:37:08.802Z,13.90
2023-04-28T06:42:18.575Z,14.90
2023-04-28T06:47:29.096Z,13.60
2023-04-28T06:52:38.541Z,9.90
2023-04-28T06:57:42.820Z,10.60
2023-04-28T07:02:47.356Z,9.50
2023-04-28T07:07:50.693Z,10.70
2023-04-28T07:12:53.928Z,10.30
2023-04-28T07:17:57.434Z,8.50
2023-04-28T07:23:00.674Z,9.30
2023-04-28T07:28:04.220Z,8.90
2023-04-28T07:33:10.967Z,6.40
2023-04-28T07:38:14.300Z,6.40
2023-04-28T07:43:17.518Z,7.00
2023-04-28T07:48:20.700Z,7.90
2023-04-28T07:53:44.218Z,6.70
2023-04-28T07:58:47.728Z,2.60
2023-04-28T08:03:51.279Z,2.20
2023-04-28T08:09:14.955Z,3.40
2023-04-28T08:14:18.506Z,4.00
2023-04-28T08:19:22.049Z,4.70
2023-04-28T08:24:25.314Z,6.10
2023-04-28T08:29:29.833Z,5.10
2023-04-28T08:34:34.203Z,5.20
2023-04-28T08:39:37.454Z,4.40
2023-04-28T08:44:40.755Z,4.40
2023-04-28T08:49:45.174Z,4.00
2023-04-28T08:54:49.899Z,3.90
2023-04-28T08:59:53.943Z,3.70
2023-04-28T09:04:57.926Z,3.70
2023-04-28T09:10:27.783Z,3.20
2023-04-28T09:15:41.401Z,2.90
2023-04-28T09:20:49.824Z,2.80
2023-04-28T09:26:04.876Z,3.00
2023-04-28T09:31:24.472Z,2.70
2023-04-28T09:36:30.799Z,2.40
2023-04-28T09:41:44.074Z,3.20
2023-04-28T09:46:48.415Z,2.60
2023-04-28T09:51:57.194Z,3.60
2023-04-28T09:57:01.242Z,3.20
2023-04-28T10:02:22.624Z,2.90
2023-04-28T10:07:35.243Z,2.30
2023-04-28T10:12:49.380Z,2.90
2023-04-28T10:17:54.495Z,3.20
2023-04-28T10:23:35.550Z,3.30
2023-04-28T10:28:46.582Z,3.30
2023-04-28T10:33:50.827Z,3.00
2023-04-28T10:39:12.210Z,3.10
2023-04-28T10:44:34.039Z,3.30
2023-04-28T10:49:58.792Z,3.00
2023-04-28T10:55:40.408Z,3.40
2023-04-28T11:00:48.666Z,3.40
2023-04-28T11:06:26.972Z,2.80
2023-04-28T11:11:33.713Z,2.80
2023-04-28T11:17:01.471Z,3.10
2023-04-28T11:22:15.882Z,3.00
2023-04-28T11:27:27.048Z,3.00
2023-04-28T11:32:32.623Z,3.10
2023-04-28T11:37:36.260Z,3.10
2023-04-28T11:42:50.586Z,3.40
2023-04-28T11:47:53.933Z,2.80
2023-04-28T11:52:57.175Z,3.20
2023-04-28T11:58:25.426Z,3.20
2023-04-28T12:03:28.859Z,3.20
2023-04-28T12:08:32.447Z,3.50
2023-04-28T12:13:36.630Z,3.30
2023-04-28T12:19:00.287Z,3.60
2023-04-28T12:24:15.050Z,3.50
2023-04-28T12:29:41.966Z,3.60
2023-04-28T12:34:47.087Z,3.80
2023-04-28T12:39:50.429Z,3.90
2023-04-28T12:44:56.956Z,4.30
2023-04-28T12:50:00.217Z,4.70
2023-04-28T12:55:04.668Z,4.50
2023-04-28T13:00:08.924Z,4.40
2023-04-28T13:05:12.516Z,4.50
2023-04-28T13:10:16.229Z,5.30
2023-04-28T13:15:19.384Z,4.70
2023-04-28T13:20:23.235Z,5.60
2023-04-28T13:25:26.535Z,5.20
2023-04-28T13:30:29.853Z,5.00
2023-04-28T13:35:39.415Z,5.10
2023-04-28T13:40:54.762Z,5.20
2023-04-28T13:45:58.201Z,5.20
2023-04-28T13:51:01.948Z,5.20
2023-04-28T13:56:06.943Z,5.40
2023-04-28T14:01:10.680Z,5.30
2023-04-28T14:06:14.293Z,5.30
2023-04-28T14:11:17.616Z,5.10
2023-04-28T14:16:23.166Z,5.60
2023-04-28T14:21:26.757Z,5.00
2023-04-28T14:26:30.011Z,6.00
2023-04-28T14:31:34.089Z,5.70
2023-04-28T14:36:42.133Z,5.50
2023-04-28T14:42:06.826Z,5.00
2023-04-28T14:47:15.599Z,5.50
2023-04-28T14:52:19.223Z,5.10
2023-04-28T14:57:22.548Z,5.40
2023-04-28T15:02:29.781Z,5.10
2023-04-28T15:07:33.451Z,5.20
2023-04-28T15:12:37.208Z,5.40
2023-04-28T15:17:40.891Z,5.10
2023-04-28T15:22:44.792Z,5.20
2023-04-28T15:27:48.116Z,5.10
2023-04-28T15:32:54.498Z,4.80
2023-04-28T15:37:58.011Z,5.30
2023-04-28T15:43:01.152Z,5.20
2023-04-28T15:48:06.410Z,5.30
2023-04-28T15:53:09.807Z,5.60
2023-04-28T15:58:12.934Z,5.40
2023-04-28T16:03:17.046Z,5.70
2023-04-28T16:08:22.763Z,5.20
2023-04-28T16:13:27.242Z,5.40
2023-04-28T16:18:31.049Z,5.40
2023-04-28T16:23:43.403Z,5.20
2023-04-28T16:28:46.717Z,23.50
2023-04-28T16:33:50.024Z,6.90
2023-04-28T16:38:53.464Z,5.80
2023-04-28T16:43:56.630Z,5.80
2023-04-28T16:49:00.479Z,5.90
2023-04-28T16:54:03.727Z,5.10
2023-04-28T16:59:07.301Z,5.20
2023-04-28T17:04:10.946Z,5.40
2023-04-28T17:09:14.284Z,5.10
2023-04-28T17:14:18.047Z,5.00
2023-04-28T17:19:21.372Z,4.70
2023-04-28T17:24:24.978Z,4.70
2023-04-28T17:29:31.736Z,4.90
2023-04-28T17:34:52.913Z,4.40
2023-04-28T17:39:56.158Z,4.80
2023-04-28T17:44:59.476Z,5.40
2023-04-28T17:50:03.032Z,8.60
2023-04-28T17:55:06.589Z,7.90
2023-04-28T18:00:12.212Z,8.30
2023-04-28T18:05:17.669Z,8.10
2023-04-28T18:10:21.040Z,8.90
2023-04-28T18:15:25.810Z,8.90
2023-04-28T18:20:29.245Z,8.30
2023-04-28T18:25:33.478Z,8.60
2023-04-28T18:30:39.158Z,9.90
2023-04-28T18:35:42.438Z,12.20
2023-04-28T18:40:45.676Z,15.20
2023-04-28T18:45:49.075Z,16.20
2023-04-28T18:50:54.165Z,12.60
2023-04-28T18:56:17.676Z,13.50
2023-04-28T19:01:20.979Z,10.90
2023-04-28T19:06:53.937Z,12.30
2023-04-28T19:11:57.702Z,11.20
2023-04-28T19:17:01.104Z,10.70
2023-04-28T19:22:04.279Z,10.70
2023-04-28T19:27:07.362Z,10.00
2023-04-28T19:32:12.300Z,10.00
2023-04-28T19:37:15.427Z,9.80
2023-04-28T19:42:19.584Z,10.30
2023-04-28T19:47:43.173Z,9.80
2023-04-28T19:52:46.634Z,9.20
2023-04-28T19:57:50.548Z,10.20
2023-04-28T20:02:54.350Z,10.60
2023-04-28T20:07:57.751Z,12.40
2023-04-28T20:13:21.102Z,13.40
2023-04-28T20:18:24.367Z,13.10
2023-04-28T20:23:29.427Z,14.50
2023-04-28T20:28:44.567Z,14.40
2023-04-28T20:33:54.345Z,14.30
2023-04-28T20:38:57.604Z,14.50
2023-04-28T20:44:01.343Z,15.30
2023-04-28T20:49:05.808Z,15.20
2023-04-28T20:54:09.078Z,16.10
2023-04-28T20:59:12.523Z,14.80
2023-04-28T21:04:16.399Z,15.30
2023-04-28T21:09:20.948Z,15.60
2023-04-28T21:14:24.253Z,15.00
2023-04-28T21:19:27.766Z,15.40
2023-04-28T21:24:31.200Z,15.60
2023-04-28T21:29:34.714Z,15.60
2023-04-28T21:34:37.974Z,15.40
2023-04-28T21:39:41.528Z,15.90
2023-04-28T21:44:45.128Z,16.70
2023-04-28T21:49:48.734Z,16.70
2023-04-28T21:54:52.457Z,16.40
2023-04-28T21:59:56.296Z,16.80
2023-04-28T22:04:59.936Z,16.80
2023-04-28T22:10:17.211Z,17.50
2023-04-28T22:16:03.057Z,17.30
2023-04-28T22:21:27.158Z,17.10
2023-04-28T22:26:30.834Z,18.20
2023-04-28T22:31:57.825Z,17.80
2023-04-28T22:37:01.396Z,17.60
2023-04-28T22:42:05.154Z,17.60
2023-04-28T22:47:08.885Z,18.60
2023-04-28T22:52:12.260Z,17.70
2023-04-28T22:57:15.703Z,17.80
2023-04-28T23:02:23.267Z,18.10
2023-04-28T23:07:47.610Z,17.70
2023-04-28T23:12:50.897Z,17.40
2023-04-28T23:17:54.093Z,16.60
2023-04-28T23:22:58.541Z,17.40
2023-04-28T23:28:01.821Z,17.70
2023-04-28T23:33:05.244Z,17.60
2023-04-28T23:38:08.584Z,17.70
2023-04-28T23:43:13.107Z,17.20
2023-04-28T23:48:16.543Z,17.50
2023-04-28T23:53:19.868Z,18.10
2023-04-28T23:58:23.346Z,17.20
